sensor_id;sensor_type;location;lat;lon;timestamp;pressure;altitude;pressure_sealevel;temperature;humidity
12624;BME280;6377;42.836;23.998;2023-09-19T00:00:18;96002.09;;;17.21;100.00
12624;BME280;6377;42.836;23.998;2023-09-19T00:02:46;96005.03;;;17.13;100.00
12624;BME280;6377;42.836;23.998;2023-09-19T00:05:18;95857.91;;;16.24;100.00
12624;BME280;6377;42.836;23.998;2023-09-19T00:07:50;95994.50;;;17.18;100.00
12624;BME280;6377;42.836;23.998;2023-09-19T00:10:19;95962.03;;;17.15;100.00
12624;BME280;6377;42.836;23.998;2023-09-19T00:12:49;96002.66;;;17.43;100.00
12624;BME280;6377;42.836;23.998;2023-09-19T00:15:17;95974.56;;;17.14;100.00
12624;BME280;6377;42.836;23.998;2023-09-19T00:17:44;95997.53;;;17.35;100.00
12624;BME280;6377;42.836;23.998;2023-09-19T00:20:13;95974.78;;;17.19;100.00
12624;BME280;6377;42.836;23.998;2023-09-19T00:22:43;95966.75;;;17.26;100.00
12624;BME280;6377;42.836;23.998;2023-09-19T00:25:11;96010.78;;;17.68;100.00
12624;BME280;6377;42.836;23.998;2023-09-19T00:27:38;96011.16;;;17.71;100.00
12624;BME280;6377;42.836;23.998;2023-09-19T00:30:10;95999.50;;;17.53;100.00
12624;BME280;6377;42.836;23.998;2023-09-19T00:32:42;96018.03;;;17.61;100.00
12624;BME280;6377;42.836;23.998;2023-09-19T00:35:10;95956.50;;;17.10;100.00
12624;BME280;6377;42.836;23.998;2023-09-19T00:37:37;96015.16;;;17.49;100.00
12624;BME280;6377;42.836;23.998;2023-09-19T00:40:06;95992.84;;;17.24;100.00
12624;BME280;6377;42.836;23.998;2023-09-19T00:42:38;95972.53;;;17.10;100.00
12624;BME280;6377;42.836;23.998;2023-09-19T00:45:07;96002.75;;;17.17;100.00
12624;BME280;6377;42.836;23.998;2023-09-19T00:47:38;96007.28;;;17.10;100.00
12624;BME280;6377;42.836;23.998;2023-09-19T00:50:08;95995.00;;;17.02;100.00
12624;BME280;6377;42.836;23.998;2023-09-19T00:52:40;96018.56;;;17.18;100.00
12624;BME280;6377;42.836;23.998;2023-09-19T00:55:11;96014.41;;;17.29;100.00
12624;BME280;6377;42.836;23.998;2023-09-19T00:57:40;95970.91;;;17.09;100.00
12624;BME280;6377;42.836;23.998;2023-09-19T01:00:09;96011.28;;;17.38;100.00
12624;BME280;6377;42.836;23.998;2023-09-19T01:02:42;96008.41;;;17.40;100.00
12624;BME280;6377;42.836;23.998;2023-09-19T01:05:10;96020.25;;;17.00;100.00
12624;BME280;6377;42.836;23.998;2023-09-19T01:07:38;96018.88;;;16.64;100.00
12624;BME280;6377;42.836;23.998;2023-09-19T01:10:07;95959.56;;;16.23;100.00
12624;BME280;6377;42.836;23.998;2023-09-19T01:12:45;95950.72;;;16.09;100.00
12624;BME280;6377;42.836;23.998;2023-09-19T01:15:20;95910.69;;;16.03;100.00
12624;BME280;6377;42.836;23.998;2023-09-19T01:17:56;96012.47;;;16.85;100.00
12624;BME280;6377;42.836;23.998;2023-09-19T01:20:33;96013.28;;;16.92;100.00
12624;BME280;6377;42.836;23.998;2023-09-19T01:23:15;96014.28;;;17.04;100.00
12624;BME280;6377;42.836;23.998;2023-09-19T01:26:05;96015.31;;;17.03;100.00
12624;BME280;6377;42.836;23.998;2023-09-19T01:28:51;96017.75;;;17.18;100.00
12624;BME280;6377;42.836;23.998;2023-09-19T01:31:23;95967.88;;;16.92;100.00
12624;BME280;6377;42.836;23.998;2023-09-19T01:33:59;95917.22;;;16.59;100.00
12624;BME280;6377;42.836;23.998;2023-09-19T01:36:31;95952.09;;;16.77;100.00
12624;BME280;6377;42.836;23.998;2023-09-19T01:39:02;96003.38;;;17.12;100.00
12624;BME280;6377;42.836;23.998;2023-09-19T01:41:45;96022.44;;;17.29;100.00
12624;BME280;6377;42.836;23.998;2023-09-19T01:44:22;96019.72;;;17.35;100.00
12624;BME280;6377;42.836;23.998;2023-09-19T01:46:58;96017.88;;;17.36;100.00
12624;BME280;6377;42.836;23.998;2023-09-19T01:49:32;96022.19;;;17.44;100.00
12624;BME280;6377;42.836;23.998;2023-09-19T01:52:05;96015.78;;;17.51;100.00
12624;BME280;6377;42.836;23.998;2023-09-19T01:54:45;96011.44;;;17.57;100.00
12624;BME280;6377;42.836;23.998;2023-09-19T01:57:22;96010.03;;;17.48;100.00
12624;BME280;6377;42.836;23.998;2023-09-19T01:59:59;96003.91;;;17.41;100.00
12624;BME280;6377;42.836;23.998;2023-09-19T02:02:34;96006.94;;;17.44;100.00
12624;BME280;6377;42.836;23.998;2023-09-19T02:05:03;96006.59;;;17.34;100.00
12624;BME280;6377;42.836;23.998;2023-09-19T02:07:31;96002.88;;;17.35;100.00
12624;BME280;6377;42.836;23.998;2023-09-19T02:09:59;96005.13;;;17.38;100.00
12624;BME280;6377;42.836;23.998;2023-09-19T02:12:27;96016.31;;;17.15;100.00
12624;BME280;6377;42.836;23.998;2023-09-19T02:14:54;96008.19;;;16.84;100.00
12624;BME280;6377;42.836;23.998;2023-09-19T02:17:21;95975.56;;;16.56;100.00
12624;BME280;6377;42.836;23.998;2023-09-19T02:19:53;96013.75;;;16.56;100.00
12624;BME280;6377;42.836;23.998;2023-09-19T02:22:20;96003.50;;;16.40;100.00
12624;BME280;6377;42.836;23.998;2023-09-19T02:24:48;96007.59;;;16.43;100.00
12624;BME280;6377;42.836;23.998;2023-09-19T02:27:17;96006.38;;;16.58;100.00
12624;BME280;6377;42.836;23.998;2023-09-19T02:29:44;96008.00;;;16.40;100.00
12624;BME280;6377;42.836;23.998;2023-09-19T02:32:12;96005.75;;;16.17;100.00
12624;BME280;6377;42.836;23.998;2023-09-19T02:34:39;96001.44;;;16.16;100.00
12624;BME280;6377;42.836;23.998;2023-09-19T02:37:09;95998.56;;;16.31;100.00
12624;BME280;6377;42.836;23.998;2023-09-19T02:39:36;95995.06;;;16.43;100.00
12624;BME280;6377;42.836;23.998;2023-09-19T02:42:04;95992.41;;;16.63;100.00
12624;BME280;6377;42.836;23.998;2023-09-19T02:44:31;95991.34;;;16.70;100.00
12624;BME280;6377;42.836;23.998;2023-09-19T02:46:59;95993.41;;;16.82;100.00
12624;BME280;6377;42.836;23.998;2023-09-19T02:49:27;95940.66;;;16.57;100.00
12624;BME280;6377;42.836;23.998;2023-09-19T02:51:54;95993.94;;;16.97;100.00
12624;BME280;6377;42.836;23.998;2023-09-19T02:54:25;96001.38;;;16.95;100.00
12624;BME280;6377;42.836;23.998;2023-09-19T02:56:53;95999.50;;;17.02;100.00
12624;BME280;6377;42.836;23.998;2023-09-19T02:59:21;95995.84;;;16.90;100.00
12624;BME280;6377;42.836;23.998;2023-09-19T03:01:50;95992.81;;;16.73;100.00
12624;BME280;6377;42.836;23.998;2023-09-19T03:04:19;95984.16;;;16.77;100.00
12624;BME280;6377;42.836;23.998;2023-09-19T03:06:47;95988.84;;;16.89;100.00
12624;BME280;6377;42.836;23.998;2023-09-19T03:09:16;95897.91;;;16.44;100.00
12624;BME280;6377;42.836;23.998;2023-09-19T03:11:46;95979.97;;;17.01;100.00
12624;BME280;6377;42.836;23.998;2023-09-19T03:14:14;95987.34;;;17.12;100.00
12624;BME280;6377;42.836;23.998;2023-09-19T03:16:41;95993.09;;;17.16;100.00
12624;BME280;6377;42.836;23.998;2023-09-19T03:19:10;95901.59;;;16.50;100.00
12624;BME280;6377;42.836;23.998;2023-09-19T03:21:37;95988.75;;;17.21;100.00
12624;BME280;6377;42.836;23.998;2023-09-19T03:24:05;95985.03;;;17.22;100.00
12624;BME280;6377;42.836;23.998;2023-09-19T03:26:33;95982.97;;;17.24;100.00
12624;BME280;6377;42.836;23.998;2023-09-19T03:29:05;95982.31;;;17.29;100.00
12624;BME280;6377;42.836;23.998;2023-09-19T03:31:33;95987.25;;;17.32;100.00
12624;BME280;6377;42.836;23.998;2023-09-19T03:34:02;95982.72;;;17.32;100.00
12624;BME280;6377;42.836;23.998;2023-09-19T03:36:30;95976.59;;;17.25;100.00
12624;BME280;6377;42.836;23.998;2023-09-19T03:39:00;95991.66;;;17.07;100.00
12624;BME280;6377;42.836;23.998;2023-09-19T03:41:30;95978.56;;;16.92;100.00
12624;BME280;6377;42.836;23.998;2023-09-19T03:43:58;95980.47;;;16.78;100.00
12624;BME280;6377;42.836;23.998;2023-09-19T03:46:27;95940.41;;;16.59;100.00
12624;BME280;6377;42.836;23.998;2023-09-19T03:48:55;95975.72;;;16.80;100.00
12624;BME280;6377;42.836;23.998;2023-09-19T03:51:23;95956.03;;;16.68;100.00
12624;BME280;6377;42.836;23.998;2023-09-19T03:53:50;95972.47;;;16.59;100.00
12624;BME280;6377;42.836;23.998;2023-09-19T03:56:17;95885.25;;;15.74;100.00
12624;BME280;6377;42.836;23.998;2023-09-19T03:58:44;95979.66;;;15.93;100.00
12624;BME280;6377;42.836;23.998;2023-09-19T04:01:11;95981.69;;;15.64;100.00
12624;BME280;6377;42.836;23.998;2023-09-19T04:03:40;95937.44;;;15.23;100.00
12624;BME280;6377;42.836;23.998;2023-09-19T04:06:13;95928.13;;;14.99;100.00
12624;BME280;6377;42.836;23.998;2023-09-19T04:08:40;95921.16;;;14.98;100.00
12624;BME280;6377;42.836;23.998;2023-09-19T04:11:08;95973.63;;;15.51;100.00
12624;BME280;6377;42.836;23.998;2023-09-19T04:13:35;95982.50;;;15.72;100.00
12624;BME280;6377;42.836;23.998;2023-09-19T04:16:03;95978.63;;;15.87;100.00
12624;BME280;6377;42.836;23.998;2023-09-19T04:18:32;95961.75;;;15.74;100.00
12624;BME280;6377;42.836;23.998;2023-09-19T04:21:04;95982.13;;;16.01;100.00
12624;BME280;6377;42.836;23.998;2023-09-19T04:23:31;95981.09;;;16.15;100.00
12624;BME280;6377;42.836;23.998;2023-09-19T04:25:58;95923.84;;;15.98;100.00
12624;BME280;6377;42.836;23.998;2023-09-19T04:28:25;95987.06;;;16.43;100.00
12624;BME280;6377;42.836;23.998;2023-09-19T04:30:53;95982.75;;;16.55;100.00
12624;BME280;6377;42.836;23.998;2023-09-19T04:33:25;95983.56;;;16.62;100.00
12624;BME280;6377;42.836;23.998;2023-09-19T04:35:52;95987.06;;;16.56;100.00
12624;BME280;6377;42.836;23.998;2023-09-19T04:38:22;95988.09;;;16.55;100.00
12624;BME280;6377;42.836;23.998;2023-09-19T04:40:49;95988.91;;;16.62;100.00
12624;BME280;6377;42.836;23.998;2023-09-19T04:43:16;95991.56;;;16.56;100.00
12624;BME280;6377;42.836;23.998;2023-09-19T04:45:43;95996.31;;;16.54;100.00
12624;BME280;6377;42.836;23.998;2023-09-19T04:48:10;96000.41;;;16.63;100.00
12624;BME280;6377;42.836;23.998;2023-09-19T04:50:40;95998.56;;;16.70;100.00
12624;BME280;6377;42.836;23.998;2023-09-19T04:53:07;96002.66;;;16.66;100.00
12624;BME280;6377;42.836;23.998;2023-09-19T04:55:35;96008.00;;;16.66;100.00
12624;BME280;6377;42.836;23.998;2023-09-19T04:58:03;95997.91;;;16.74;100.00
12624;BME280;6377;42.836;23.998;2023-09-19T05:00:30;96000.59;;;16.81;100.00
12624;BME280;6377;42.836;23.998;2023-09-19T05:03:00;95998.94;;;16.87;100.00
12624;BME280;6377;42.836;23.998;2023-09-19T05:05:29;95994.00;;;16.90;100.00
12624;BME280;6377;42.836;23.998;2023-09-19T05:07:56;95990.06;;;16.93;100.00
12624;BME280;6377;42.836;23.998;2023-09-19T05:10:24;95990.06;;;16.99;100.00
12624;BME280;6377;42.836;23.998;2023-09-19T05:12:54;95974.88;;;16.87;100.00
12624;BME280;6377;42.836;23.998;2023-09-19T05:15:22;95980.00;;;16.95;100.00
12624;BME280;6377;42.836;23.998;2023-09-19T05:17:49;95976.28;;;17.02;100.00
12624;BME280;6377;42.836;23.998;2023-09-19T05:20:17;95986.50;;;17.12;100.00
12624;BME280;6377;42.836;23.998;2023-09-19T05:22:50;95980.53;;;17.16;100.00
12624;BME280;6377;42.836;23.998;2023-09-19T05:25:17;95992.50;;;17.07;100.00
12624;BME280;6377;42.836;23.998;2023-09-19T05:27:46;95977.06;;;17.03;100.00
12624;BME280;6377;42.836;23.998;2023-09-19T05:30:14;95985.50;;;17.00;100.00
12624;BME280;6377;42.836;23.998;2023-09-19T05:32:41;95979.38;;;16.93;100.00
12624;BME280;6377;42.836;23.998;2023-09-19T05:35:09;95976.34;;;16.76;100.00
12624;BME280;6377;42.836;23.998;2023-09-19T05:37:38;95974.94;;;16.60;100.00
12624;BME280;6377;42.836;23.998;2023-09-19T05:40:06;95936.97;;;16.19;100.00
12624;BME280;6377;42.836;23.998;2023-09-19T05:42:36;95967.75;;;16.54;100.00
12624;BME280;6377;42.836;23.998;2023-09-19T05:45:04;95971.81;;;16.76;100.00
12624;BME280;6377;42.836;23.998;2023-09-19T05:47:33;95966.03;;;16.93;100.00
12624;BME280;6377;42.836;23.998;2023-09-19T05:50:01;95967.28;;;16.90;100.00
12624;BME280;6377;42.836;23.998;2023-09-19T05:52:28;95961.94;;;16.90;100.00
12624;BME280;6377;42.836;23.998;2023-09-19T05:54:55;95958.63;;;16.95;100.00
12624;BME280;6377;42.836;23.998;2023-09-19T05:57:23;95949.94;;;17.06;100.00
12624;BME280;6377;42.836;23.998;2023-09-19T05:59:50;95950.91;;;17.18;100.00
12624;BME280;6377;42.836;23.998;2023-09-19T06:02:17;95940.44;;;17.23;100.00
12624;BME280;6377;42.836;23.998;2023-09-19T06:04:46;95940.19;;;17.31;100.00
12624;BME280;6377;42.836;23.998;2023-09-19T06:07:14;95944.47;;;17.32;100.00
12624;BME280;6377;42.836;23.998;2023-09-19T06:09:42;95936.41;;;17.38;100.00
12624;BME280;6377;42.836;23.998;2023-09-19T06:12:09;95790.06;;;16.52;100.00
12624;BME280;6377;42.836;23.998;2023-09-19T06:14:39;95813.47;;;16.63;100.00
12624;BME280;6377;42.836;23.998;2023-09-19T06:17:07;95930.06;;;17.40;100.00
12624;BME280;6377;42.836;23.998;2023-09-19T06:19:34;95924.56;;;17.28;100.00
12624;BME280;6377;42.836;23.998;2023-09-19T06:22:03;95918.16;;;17.29;100.00
12624;BME280;6377;42.836;23.998;2023-09-19T06:24:30;95765.31;;;16.32;100.00
12624;BME280;6377;42.836;23.998;2023-09-19T06:26:57;95911.75;;;17.36;100.00
12624;BME280;6377;42.836;23.998;2023-09-19T06:29:27;95910.25;;;17.47;100.00
12624;BME280;6377;42.836;23.998;2023-09-19T06:31:54;95847.53;;;17.12;100.00
12624;BME280;6377;42.836;23.998;2023-09-19T06:34:21;95898.38;;;17.43;100.00
12624;BME280;6377;42.836;23.998;2023-09-19T06:36:48;95926.03;;;17.62;100.00
12624;BME280;6377;42.836;23.998;2023-09-19T06:39:17;95796.06;;;16.92;100.00
12624;BME280;6377;42.836;23.998;2023-09-19T06:41:45;95905.75;;;17.79;100.00
12624;BME280;6377;42.836;23.998;2023-09-19T06:44:12;95821.72;;;17.30;100.00
12624;BME280;6377;42.836;23.998;2023-09-19T06:46:40;95909.44;;;17.84;100.00
12624;BME280;6377;42.836;23.998;2023-09-19T06:49:07;95902.53;;;17.95;100.00
12624;BME280;6377;42.836;23.998;2023-09-19T06:51:36;95852.50;;;17.71;100.00
12624;BME280;6377;42.836;23.998;2023-09-19T06:54:04;95903.84;;;18.11;100.00
12624;BME280;6377;42.836;23.998;2023-09-19T06:56:32;95920.22;;;18.21;100.00
12624;BME280;6377;42.836;23.998;2023-09-19T06:59:00;95841.97;;;18.01;100.00
12624;BME280;6377;42.836;23.998;2023-09-19T07:01:28;95899.78;;;18.51;100.00
12624;BME280;6377;42.836;23.998;2023-09-19T07:03:57;95900.06;;;18.61;100.00
12624;BME280;6377;42.836;23.998;2023-09-19T07:06:24;95880.28;;;18.62;100.00
12624;BME280;6377;42.836;23.998;2023-09-19T07:08:51;95905.81;;;18.83;100.00
12624;BME280;6377;42.836;23.998;2023-09-19T07:11:19;95894.97;;;18.96;100.00
12624;BME280;6377;42.836;23.998;2023-09-19T07:13:48;95886.31;;;18.94;100.00
12624;BME280;6377;42.836;23.998;2023-09-19T07:16:15;95900.78;;;19.23;100.00
12624;BME280;6377;42.836;23.998;2023-09-19T07:18:53;95911.44;;;19.29;100.00
12624;BME280;6377;42.836;23.998;2023-09-19T07:21:20;95906.44;;;19.33;98.54
12624;BME280;6377;42.836;23.998;2023-09-19T07:23:48;95911.31;;;19.42;98.43
12624;BME280;6377;42.836;23.998;2023-09-19T07:26:15;95757.75;;;18.58;98.46
12624;BME280;6377;42.836;23.998;2023-09-19T07:28:42;95910.28;;;19.55;97.91
12624;BME280;6377;42.836;23.998;2023-09-19T07:31:11;95775.03;;;18.73;97.06
12624;BME280;6377;42.836;23.998;2023-09-19T07:33:40;95906.47;;;19.63;100.00
12624;BME280;6377;42.836;23.998;2023-09-19T07:36:11;95908.00;;;19.70;100.00
12624;BME280;6377;42.836;23.998;2023-09-19T07:38:39;95908.25;;;19.69;97.93
12624;BME280;6377;42.836;23.998;2023-09-19T07:41:07;95911.38;;;19.66;100.00
12624;BME280;6377;42.836;23.998;2023-09-19T07:43:34;95904.13;;;19.54;99.97
12624;BME280;6377;42.836;23.998;2023-09-19T07:46:04;95906.66;;;19.49;100.00
12624;BME280;6377;42.836;23.998;2023-09-19T07:48:34;95885.13;;;19.38;100.00
12624;BME280;6377;42.836;23.998;2023-09-19T07:51:02;95903.97;;;19.49;100.00
12624;BME280;6377;42.836;23.998;2023-09-19T07:53:30;95897.22;;;19.58;100.00
12624;BME280;6377;42.836;23.998;2023-09-19T07:56:04;95879.06;;;19.61;96.08
12624;BME280;6377;42.836;23.998;2023-09-19T07:58:31;95882.38;;;19.86;98.67
12624;BME280;6377;42.836;23.998;2023-09-19T08:01:03;95883.56;;;20.01;99.49
12624;BME280;6377;42.836;23.998;2023-09-19T08:03:30;95885.09;;;20.21;96.49
12624;BME280;6377;42.836;23.998;2023-09-19T08:05:59;95784.44;;;19.77;96.50
12624;BME280;6377;42.836;23.998;2023-09-19T08:08:26;95878.34;;;20.53;92.66
12624;BME280;6377;42.836;23.998;2023-09-19T08:10:54;95875.53;;;20.71;87.04
12624;BME280;6377;42.836;23.998;2023-09-19T08:13:23;95874.78;;;20.87;88.18
12624;BME280;6377;42.836;23.998;2023-09-19T08:15:50;95822.69;;;20.77;87.37
12624;BME280;6377;42.836;23.998;2023-09-19T08:18:18;95757.44;;;20.53;89.37
12624;BME280;6377;42.836;23.998;2023-09-19T08:20:50;95859.78;;;21.43;84.96
12624;BME280;6377;42.836;23.998;2023-09-19T08:23:19;95849.66;;;21.50;81.20
12624;BME280;6377;42.836;23.998;2023-09-19T08:25:47;95730.63;;;20.98;77.44
12624;BME280;6377;42.836;23.998;2023-09-19T08:28:14;95862.47;;;21.88;71.76
12624;BME280;6377;42.836;23.998;2023-09-19T08:30:45;95828.59;;;21.75;71.18
12624;BME280;6377;42.836;23.998;2023-09-19T08:33:12;95865.81;;;22.11;70.91
12624;BME280;6377;42.836;23.998;2023-09-19T08:35:40;95854.81;;;22.29;69.68
12624;BME280;6377;42.836;23.998;2023-09-19T08:38:09;95860.75;;;22.31;67.08
12624;BME280;6377;42.836;23.998;2023-09-19T08:40:38;95869.88;;;22.47;66.80
12624;BME280;6377;42.836;23.998;2023-09-19T08:43:07;95858.69;;;22.72;64.80
12624;BME280;6377;42.836;23.998;2023-09-19T08:45:35;95857.56;;;22.90;64.51
12624;BME280;6377;42.836;23.998;2023-09-19T08:48:15;95844.38;;;22.93;63.14
12624;BME280;6377;42.836;23.998;2023-09-19T08:50:48;95856.16;;;23.09;60.39
12624;BME280;6377;42.836;23.998;2023-09-19T08:53:21;95861.63;;;23.14;60.14
12624;BME280;6377;42.836;23.998;2023-09-19T08:55:54;95815.56;;;22.99;61.94
12624;BME280;6377;42.836;23.998;2023-09-19T08:58:26;95857.72;;;23.26;61.84
12624;BME280;6377;42.836;23.998;2023-09-19T09:00:56;95854.00;;;23.32;62.16
12624;BME280;6377;42.836;23.998;2023-09-19T09:03:32;95848.94;;;23.36;61.47
12624;BME280;6377;42.836;23.998;2023-09-19T09:06:00;95849.81;;;23.41;62.40
12624;BME280;6377;42.836;23.998;2023-09-19T09:08:30;95840.00;;;23.35;60.43
12624;BME280;6377;42.836;23.998;2023-09-19T09:10:59;95839.25;;;23.40;58.06
12624;BME280;6377;42.836;23.998;2023-09-19T09:13:26;95826.97;;;23.27;58.39
12624;BME280;6377;42.836;23.998;2023-09-19T09:15:54;95831.28;;;23.28;59.61
12624;BME280;6377;42.836;23.998;2023-09-19T09:18:21;95821.31;;;23.29;62.27
12624;BME280;6377;42.836;23.998;2023-09-19T09:20:49;95830.84;;;23.36;60.63
12624;BME280;6377;42.836;23.998;2023-09-19T09:23:17;95829.09;;;23.47;60.33
12624;BME280;6377;42.836;23.998;2023-09-19T09:25:48;95836.69;;;23.50;59.40
12624;BME280;6377;42.836;23.998;2023-09-19T09:28:22;95819.69;;;23.55;58.06
12624;BME280;6377;42.836;23.998;2023-09-19T09:30:50;95821.16;;;23.62;57.77
12624;BME280;6377;42.836;23.998;2023-09-19T09:33:17;95833.59;;;23.95;56.86
12624;BME280;6377;42.836;23.998;2023-09-19T09:35:49;95830.50;;;24.13;56.88
12624;BME280;6377;42.836;23.998;2023-09-19T09:38:22;95832.84;;;24.36;57.61
12624;BME280;6377;42.836;23.998;2023-09-19T09:40:53;95833.41;;;24.43;56.71
12624;BME280;6377;42.836;23.998;2023-09-19T09:43:29;95830.47;;;24.45;57.04
12624;BME280;6377;42.836;23.998;2023-09-19T09:46:07;95829.25;;;24.73;57.05
12624;BME280;6377;42.836;23.998;2023-09-19T09:48:57;95813.56;;;24.75;56.51
12624;BME280;6377;42.836;23.998;2023-09-19T09:51:44;95824.50;;;24.90;54.13
12624;BME280;6377;42.836;23.998;2023-09-19T09:54:15;95819.69;;;25.02;54.72
12624;BME280;6377;42.836;23.998;2023-09-19T09:56:53;95801.53;;;24.97;54.36
12624;BME280;6377;42.836;23.998;2023-09-19T09:59:47;95818.59;;;25.03;54.60
12624;BME280;6377;42.836;23.998;2023-09-19T10:02:16;95822.47;;;24.65;53.89
12624;BME280;6377;42.836;23.998;2023-09-19T10:04:50;95817.78;;;24.50;51.33
12624;BME280;6377;42.836;23.998;2023-09-19T10:07:35;95815.94;;;24.56;52.63
12624;BME280;6377;42.836;23.998;2023-09-19T10:10:06;95813.31;;;24.76;54.17
12624;BME280;6377;42.836;23.998;2023-09-19T10:12:44;95829.38;;;24.88;52.38
12624;BME280;6377;42.836;23.998;2023-09-19T10:15:16;95811.38;;;25.34;52.54
12624;BME280;6377;42.836;23.998;2023-09-19T10:17:46;95812.59;;;25.88;51.33
12624;BME280;6377;42.836;23.998;2023-09-19T10:20:15;95813.38;;;26.34;49.54
12624;BME280;6377;42.836;23.998;2023-09-19T10:22:53;95805.22;;;26.49;47.39
12624;BME280;6377;42.836;23.998;2023-09-19T10:25:26;95792.75;;;26.43;49.00
12624;BME280;6377;42.836;23.998;2023-09-19T10:27:54;95798.75;;;26.25;49.25
12624;BME280;6377;42.836;23.998;2023-09-19T10:30:24;95799.28;;;26.02;49.13
12624;BME280;6377;42.836;23.998;2023-09-19T10:32:57;95797.41;;;25.82;47.46
12624;BME280;6377;42.836;23.998;2023-09-19T10:35:26;95802.25;;;25.70;47.71
12624;BME280;6377;42.836;23.998;2023-09-19T10:37:55;95792.47;;;25.54;48.41
12624;BME280;6377;42.836;23.998;2023-09-19T10:40:25;95790.34;;;25.56;49.19
12624;BME280;6377;42.836;23.998;2023-09-19T10:43:01;95786.28;;;25.63;49.61
12624;BME280;6377;42.836;23.998;2023-09-19T10:45:33;95727.66;;;25.07;47.39
12624;BME280;6377;42.836;23.998;2023-09-19T10:48:01;95790.88;;;25.48;48.22
12624;BME280;6377;42.836;23.998;2023-09-19T10:50:31;95752.38;;;25.41;47.24
12624;BME280;6377;42.836;23.998;2023-09-19T10:53:02;95697.41;;;25.40;46.60
12624;BME280;6377;42.836;23.998;2023-09-19T10:55:34;95744.28;;;25.91;47.25
12624;BME280;6377;42.836;23.998;2023-09-19T10:58:02;95746.44;;;26.09;47.42
12624;BME280;6377;42.836;23.998;2023-09-19T11:00:53;95783.50;;;26.59;45.29
12624;BME280;6377;42.836;23.998;2023-09-19T11:03:21;95761.19;;;26.72;46.34
12624;BME280;6377;42.836;23.998;2023-09-19T11:06:10;95770.63;;;26.95;43.91
12624;BME280;6377;42.836;23.998;2023-09-19T11:08:57;95727.78;;;27.31;44.88
12624;BME280;6377;42.836;23.998;2023-09-19T11:11:46;95774.63;;;27.96;44.21
12624;BME280;6377;42.836;23.998;2023-09-19T11:17:33;95771.16;;;28.24;44.59
12624;BME280;6377;42.836;23.998;2023-09-19T11:20:24;95765.75;;;27.85;45.33
12624;BME280;6377;42.836;23.998;2023-09-19T11:23:23;95769.59;;;27.79;45.22
12624;BME280;6377;42.836;23.998;2023-09-19T11:25:52;95713.38;;;27.36;44.89
12624;BME280;6377;42.836;23.998;2023-09-19T11:28:30;95723.97;;;27.76;44.07
12624;BME280;6377;42.836;23.998;2023-09-19T11:30:59;95680.09;;;27.54;45.27
12624;BME280;6377;42.836;23.998;2023-09-19T11:33:48;95757.53;;;28.24;44.81
12624;BME280;6377;42.836;23.998;2023-09-19T11:36:16;95755.22;;;28.36;43.57
12624;BME280;6377;42.836;23.998;2023-09-19T11:39:00;95744.81;;;28.43;43.85
12624;BME280;6377;42.836;23.998;2023-09-19T11:41:40;95701.59;;;28.13;43.92
12624;BME280;6377;42.836;23.998;2023-09-19T11:44:33;95748.97;;;28.64;43.92
12624;BME280;6377;42.836;23.998;2023-09-19T11:47:04;95711.91;;;28.87;45.22
12624;BME280;6377;42.836;23.998;2023-09-19T11:49:34;95708.44;;;29.42;43.64
12624;BME280;6377;42.836;23.998;2023-09-19T11:52:04;95740.25;;;30.30;42.92
12624;BME280;6377;42.836;23.998;2023-09-19T11:54:35;95719.06;;;30.41;40.68
12624;BME280;6377;42.836;23.998;2023-09-19T11:57:05;95702.88;;;30.44;40.96
12624;BME280;6377;42.836;23.998;2023-09-19T11:59:38;95702.25;;;30.34;40.13
12624;BME280;6377;42.836;23.998;2023-09-19T12:02:06;95695.34;;;30.09;40.99
12624;BME280;6377;42.836;23.998;2023-09-19T12:04:37;95684.47;;;30.36;41.05
12624;BME280;6377;42.836;23.998;2023-09-19T12:07:07;95671.50;;;30.83;39.91
12624;BME280;6377;42.836;23.998;2023-09-19T12:09:39;95715.97;;;31.24;37.71
12624;BME280;6377;42.836;23.998;2023-09-19T12:12:09;95692.56;;;30.96;39.56
12624;BME280;6377;42.836;23.998;2023-09-19T12:14:38;95699.91;;;30.14;40.71
12624;BME280;6377;42.836;23.998;2023-09-19T12:17:07;95653.72;;;29.02;42.33
12624;BME280;6377;42.836;23.998;2023-09-19T12:19:36;95675.06;;;28.95;43.51
12624;BME280;6377;42.836;23.998;2023-09-19T12:22:03;95680.13;;;29.01;43.68
12624;BME280;6377;42.836;23.998;2023-09-19T12:24:32;95623.50;;;28.61;43.34
12624;BME280;6377;42.836;23.998;2023-09-19T12:27:02;95705.66;;;28.39;44.11
12624;BME280;6377;42.836;23.998;2023-09-19T12:29:31;95635.59;;;27.78;45.16
12624;BME280;6377;42.836;23.998;2023-09-19T12:32:00;95656.81;;;27.76;44.76
12624;BME280;6377;42.836;23.998;2023-09-19T12:34:30;95705.81;;;27.95;45.36
12624;BME280;6377;42.836;23.998;2023-09-19T12:37:22;95714.63;;;27.87;45.52
12624;BME280;6377;42.836;23.998;2023-09-19T12:40:04;95705.69;;;27.81;45.88
12624;BME280;6377;42.836;23.998;2023-09-19T12:42:40;95655.31;;;27.26;44.75
12624;BME280;6377;42.836;23.998;2023-09-19T12:45:09;95705.34;;;27.59;45.41
12624;BME280;6377;42.836;23.998;2023-09-19T12:47:36;95687.00;;;27.41;45.67
12624;BME280;6377;42.836;23.998;2023-09-19T12:50:10;95643.03;;;26.95;46.02
12624;BME280;6377;42.836;23.998;2023-09-19T12:52:45;95717.19;;;27.35;45.90
12624;BME280;6377;42.836;23.998;2023-09-19T12:55:25;95708.78;;;27.31;46.39
12624;BME280;6377;42.836;23.998;2023-09-19T12:58:12;95668.94;;;26.83;46.14
12624;BME280;6377;42.836;23.998;2023-09-19T13:00:42;95721.13;;;27.13;46.20
12624;BME280;6377;42.836;23.998;2023-09-19T13:03:14;95715.56;;;27.34;46.54
12624;BME280;6377;42.836;23.998;2023-09-19T13:05:50;95657.38;;;27.06;46.03
12624;BME280;6377;42.836;23.998;2023-09-19T13:08:23;95716.22;;;27.59;46.76
12624;BME280;6377;42.836;23.998;2023-09-19T13:11:09;95715.78;;;27.42;45.38
12624;BME280;6377;42.836;23.998;2023-09-19T13:13:40;95713.56;;;27.49;45.57
12624;BME280;6377;42.836;23.998;2023-09-19T13:16:09;95659.00;;;27.41;44.60